sensor_id;sensor_type;location;lat;lon;timestamp;P1;durP1;ratioP1;P2;durP2;ratioP2
51732;SDS011;39139;53.144;6.244;2023-09-19T00:00:45;12.15;;;2.05;;
51732;SDS011;39139;53.144;6.244;2023-09-19T00:03:14;7.55;;;1.95;;
51732;SDS011;39139;53.144;6.244;2023-09-19T00:05:40;13.32;;;2.35;;
51732;SDS011;39139;53.144;6.244;2023-09-19T00:08:09;10.80;;;2.40;;
51732;SDS011;39139;53.144;6.244;2023-09-19T00:10:34;15.52;;;2.78;;
51732;SDS011;39139;53.144;6.244;2023-09-19T00:13:00;11.88;;;3.17;;
51732;SDS011;39139;53.144;6.244;2023-09-19T00:15:37;18.23;;;2.88;;
51732;SDS011;39139;53.144;6.244;2023-09-19T00:18:04;8.73;;;3.03;;
51732;SDS011;39139;53.144;6.244;2023-09-19T00:20:31;13.02;;;2.50;;
51732;SDS011;39139;53.144;6.244;2023-09-19T00:23:00;10.60;;;2.38;;
51732;SDS011;39139;53.144;6.244;2023-09-19T00:25:33;13.40;;;2.08;;
51732;SDS011;39139;53.144;6.244;2023-09-19T00:28:00;13.73;;;2.72;;
51732;SDS011;39139;53.144;6.244;2023-09-19T00:30:26;7.65;;;2.03;;
51732;SDS011;39139;53.144;6.244;2023-09-19T00:32:52;14.45;;;2.15;;
51732;SDS011;39139;53.144;6.244;2023-09-19T00:35:18;12.88;;;2.30;;
51732;SDS011;39139;53.144;6.244;2023-09-19T00:37:50;10.80;;;2.33;;
51732;SDS011;39139;53.144;6.244;2023-09-19T00:40:16;10.63;;;2.70;;
51732;SDS011;39139;53.144;6.244;2023-09-19T00:42:42;9.60;;;1.73;;
51732;SDS011;39139;53.144;6.244;2023-09-19T00:45:10;11.00;;;2.35;;
51732;SDS011;39139;53.144;6.244;2023-09-19T00:47:47;11.20;;;2.40;;
51732;SDS011;39139;53.144;6.244;2023-09-19T00:50:15;16.70;;;2.35;;
51732;SDS011;39139;53.144;6.244;2023-09-19T00:52:47;15.48;;;2.25;;
51732;SDS011;39139;53.144;6.244;2023-09-19T00:55:15;7.97;;;2.13;;
51732;SDS011;39139;53.144;6.244;2023-09-19T00:57:41;11.60;;;2.22;;
51732;SDS011;39139;53.144;6.244;2023-09-19T01:00:09;10.15;;;1.92;;
51732;SDS011;39139;53.144;6.244;2023-09-19T01:02:41;16.55;;;2.75;;
51732;SDS011;39139;53.144;6.244;2023-09-19T01:05:10;9.25;;;2.13;;
51732;SDS011;39139;53.144;6.244;2023-09-19T01:07:37;9.85;;;2.30;;
51732;SDS011;39139;53.144;6.244;2023-09-19T01:10:05;14.48;;;2.30;;
51732;SDS011;39139;53.144;6.244;2023-09-19T01:15:30;10.35;;;2.28;;
51732;SDS011;39139;53.144;6.244;2023-09-19T01:23:28;10.43;;;2.15;;
51732;SDS011;39139;53.144;6.244;2023-09-19T01:31:49;13.15;;;2.50;;
51732;SDS011;39139;53.144;6.244;2023-09-19T01:34:19;9.43;;;2.35;;
51732;SDS011;39139;53.144;6.244;2023-09-19T01:36:45;8.55;;;2.17;;
51732;SDS011;39139;53.144;6.244;2023-09-19T01:39:11;11.82;;;2.38;;
51732;SDS011;39139;53.144;6.244;2023-09-19T01:44:40;17.48;;;2.95;;
51732;SDS011;39139;53.144;6.244;2023-09-19T01:47:23;11.10;;;2.60;;
51732;SDS011;39139;53.144;6.244;2023-09-19T01:53:02;12.57;;;2.17;;
51732;SDS011;39139;53.144;6.244;2023-09-19T01:55:36;11.13;;;2.28;;
51732;SDS011;39139;53.144;6.244;2023-09-19T01:58:15;10.27;;;2.55;;
51732;SDS011;39139;53.144;6.244;2023-09-19T02:00:57;11.77;;;2.75;;
51732;SDS011;39139;53.144;6.244;2023-09-19T02:03:25;7.43;;;2.08;;
51732;SDS011;39139;53.144;6.244;2023-09-19T02:05:52;10.95;;;1.90;;
51732;SDS011;39139;53.144;6.244;2023-09-19T02:08:19;11.23;;;2.13;;
51732;SDS011;39139;53.144;6.244;2023-09-19T02:10:48;6.78;;;2.03;;
51732;SDS011;39139;53.144;6.244;2023-09-19T02:13:17;10.18;;;2.13;;
51732;SDS011;39139;53.144;6.244;2023-09-19T02:15:44;12.70;;;2.00;;
51732;SDS011;39139;53.144;6.244;2023-09-19T02:18:11;6.68;;;2.08;;
51732;SDS011;39139;53.144;6.244;2023-09-19T02:20:37;13.18;;;2.72;;
51732;SDS011;39139;53.144;6.244;2023-09-19T02:23:04;12.32;;;2.00;;
51732;SDS011;39139;53.144;6.244;2023-09-19T02:25:30;9.60;;;2.22;;
51732;SDS011;39139;53.144;6.244;2023-09-19T02:27:57;15.55;;;2.35;;
51732;SDS011;39139;53.144;6.244;2023-09-19T02:30:24;9.95;;;2.15;;
51732;SDS011;39139;53.144;6.244;2023-09-19T02:32:51;10.55;;;2.13;;
51732;SDS011;39139;53.144;6.244;2023-09-19T02:35:16;12.02;;;2.40;;
51732;SDS011;39139;53.144;6.244;2023-09-19T02:37:44;14.90;;;1.88;;
51732;SDS011;39139;53.144;6.244;2023-09-19T02:40:10;10.25;;;2.20;;
51732;SDS011;39139;53.144;6.244;2023-09-19T02:42:52;9.00;;;1.88;;
51732;SDS011;39139;53.144;6.244;2023-09-19T02:45:19;8.82;;;2.15;;
51732;SDS011;39139;53.144;6.244;2023-09-19T02:47:46;10.90;;;2.20;;
51732;SDS011;39139;53.144;6.244;2023-09-19T02:50:12;9.02;;;2.17;;
51732;SDS011;39139;53.144;6.244;2023-09-19T02:52:44;7.57;;;2.08;;
51732;SDS011;39139;53.144;6.244;2023-09-19T02:55:13;13.85;;;2.08;;
51732;SDS011;39139;53.144;6.244;2023-09-19T02:57:48;12.75;;;2.30;;
51732;SDS011;39139;53.144;6.244;2023-09-19T03:00:15;15.45;;;2.28;;
51732;SDS011;39139;53.144;6.244;2023-09-19T03:02:42;12.20;;;2.10;;
51732;SDS011;39139;53.144;6.244;2023-09-19T03:05:09;12.38;;;1.88;;
51732;SDS011;39139;53.144;6.244;2023-09-19T03:07:36;12.98;;;1.98;;
51732;SDS011;39139;53.144;6.244;2023-09-19T03:10:03;9.77;;;2.22;;
51732;SDS011;39139;53.144;6.244;2023-09-19T03:12:30;9.40;;;2.35;;
51732;SDS011;39139;53.144;6.244;2023-09-19T03:14:57;8.18;;;1.60;;
51732;SDS011;39139;53.144;6.244;2023-09-19T03:17:22;14.40;;;2.55;;
51732;SDS011;39139;53.144;6.244;2023-09-19T03:19:48;8.55;;;1.75;;
51732;SDS011;39139;53.144;6.244;2023-09-19T03:22:14;15.40;;;2.10;;
51732;SDS011;39139;53.144;6.244;2023-09-19T03:24:40;8.15;;;1.60;;
51732;SDS011;39139;53.144;6.244;2023-09-19T03:27:08;10.38;;;1.58;;
51732;SDS011;39139;53.144;6.244;2023-09-19T03:29:35;9.25;;;1.90;;
51732;SDS011;39139;53.144;6.244;2023-09-19T03:32:01;10.68;;;2.28;;
51732;SDS011;39139;53.144;6.244;2023-09-19T03:34:26;9.80;;;2.90;;
51732;SDS011;39139;53.144;6.244;2023-09-19T03:36:52;12.38;;;1.95;;
51732;SDS011;39139;53.144;6.244;2023-09-19T03:39:18;14.75;;;2.13;;
51732;SDS011;39139;53.144;6.244;2023-09-19T03:41:43;12.00;;;2.03;;
51732;SDS011;39139;53.144;6.244;2023-09-19T03:44:10;9.68;;;2.10;;
51732;SDS011;39139;53.144;6.244;2023-09-19T03:46:35;13.60;;;1.75;;
51732;SDS011;39139;53.144;6.244;2023-09-19T03:49:01;12.00;;;2.10;;
51732;SDS011;39139;53.144;6.244;2023-09-19T03:51:28;7.30;;;1.90;;
51732;SDS011;39139;53.144;6.244;2023-09-19T03:53:53;7.75;;;2.03;;
51732;SDS011;39139;53.144;6.244;2023-09-19T03:56:19;7.65;;;2.15;;
51732;SDS011;39139;53.144;6.244;2023-09-19T03:58:44;10.45;;;2.13;;
51732;SDS011;39139;53.144;6.244;2023-09-19T04:01:10;7.18;;;1.48;;
51732;SDS011;39139;53.144;6.244;2023-09-19T04:03:36;10.38;;;2.42;;
51732;SDS011;39139;53.144;6.244;2023-09-19T04:06:12;9.68;;;1.75;;
51732;SDS011;39139;53.144;6.244;2023-09-19T04:08:38;10.07;;;2.67;;
51732;SDS011;39139;53.144;6.244;2023-09-19T04:11:04;10.55;;;2.30;;
51732;SDS011;39139;53.144;6.244;2023-09-19T04:13:30;9.00;;;2.17;;
51732;SDS011;39139;53.144;6.244;2023-09-19T04:15:55;9.27;;;1.73;;
51732;SDS011;39139;53.144;6.244;2023-09-19T04:18:21;6.10;;;2.05;;
51732;SDS011;39139;53.144;6.244;2023-09-19T04:20:49;13.80;;;2.53;;
51732;SDS011;39139;53.144;6.244;2023-09-19T04:23:15;12.93;;;1.95;;
51732;SDS011;39139;53.144;6.244;2023-09-19T04:25:41;10.77;;;2.40;;
51732;SDS011;39139;53.144;6.244;2023-09-19T04:28:07;8.05;;;1.77;;
51732;SDS011;39139;53.144;6.244;2023-09-19T04:30:35;8.10;;;1.80;;
51732;SDS011;39139;53.144;6.244;2023-09-19T04:33:01;11.95;;;2.92;;
51732;SDS011;39139;53.144;6.244;2023-09-19T04:35:27;12.20;;;2.22;;
51732;SDS011;39139;53.144;6.244;2023-09-19T04:37:54;11.23;;;2.45;;
51732;SDS011;39139;53.144;6.244;2023-09-19T04:40:20;13.20;;;2.47;;
51732;SDS011;39139;53.144;6.244;2023-09-19T04:42:45;10.75;;;1.80;;
51732;SDS011;39139;53.144;6.244;2023-09-19T04:45:22;9.88;;;2.45;;
51732;SDS011;39139;53.144;6.244;2023-09-19T04:47:48;10.27;;;2.60;;
51732;SDS011;39139;53.144;6.244;2023-09-19T04:50:13;9.10;;;2.40;;
51732;SDS011;39139;53.144;6.244;2023-09-19T04:52:43;9.00;;;1.92;;
51732;SDS011;39139;53.144;6.244;2023-09-19T04:55:12;8.25;;;1.80;;
51732;SDS011;39139;53.144;6.244;2023-09-19T04:57:45;9.23;;;2.05;;
51732;SDS011;39139;53.144;6.244;2023-09-19T05:00:13;8.80;;;2.45;;
51732;SDS011;39139;53.144;6.244;2023-09-19T05:02:39;9.18;;;2.67;;
51732;SDS011;39139;53.144;6.244;2023-09-19T05:05:07;10.20;;;2.30;;
51732;SDS011;39139;53.144;6.244;2023-09-19T05:07:33;11.63;;;2.40;;
51732;SDS011;39139;53.144;6.244;2023-09-19T05:09:59;14.23;;;2.65;;
51732;SDS011;39139;53.144;6.244;2023-09-19T05:12:28;10.43;;;2.13;;
51732;SDS011;39139;53.144;6.244;2023-09-19T05:14:54;13.05;;;2.88;;
51732;SDS011;39139;53.144;6.244;2023-09-19T05:17:20;11.25;;;2.22;;
51732;SDS011;39139;53.144;6.244;2023-09-19T05:19:46;7.60;;;1.80;;
51732;SDS011;39139;53.144;6.244;2023-09-19T05:22:12;8.45;;;2.17;;
51732;SDS011;39139;53.144;6.244;2023-09-19T05:24:37;15.77;;;2.40;;
51732;SDS011;39139;53.144;6.244;2023-09-19T05:27:04;12.75;;;2.38;;
51732;SDS011;39139;53.144;6.244;2023-09-19T05:29:32;11.60;;;2.03;;
51732;SDS011;39139;53.144;6.244;2023-09-19T05:31:58;8.13;;;1.95;;
51732;SDS011;39139;53.144;6.244;2023-09-19T05:34:24;15.40;;;2.45;;
51732;SDS011;39139;53.144;6.244;2023-09-19T05:36:55;9.48;;;2.53;;
51732;SDS011;39139;53.144;6.244;2023-09-19T05:39:21;8.93;;;2.00;;
51732;SDS011;39139;53.144;6.244;2023-09-19T05:41:47;12.65;;;2.30;;
51732;SDS011;39139;53.144;6.244;2023-09-19T05:44:13;15.70;;;2.20;;
51732;SDS011;39139;53.144;6.244;2023-09-19T05:46:40;12.80;;;2.10;;
51732;SDS011;39139;53.144;6.244;2023-09-19T05:49:05;9.60;;;2.60;;
51732;SDS011;39139;53.144;6.244;2023-09-19T05:51:31;13.25;;;2.10;;
51732;SDS011;39139;53.144;6.244;2023-09-19T05:53:56;14.32;;;2.58;;
51732;SDS011;39139;53.144;6.244;2023-09-19T05:56:23;14.80;;;2.58;;
51732;SDS011;39139;53.144;6.244;2023-09-19T05:58:48;11.57;;;2.90;;
51732;SDS011;39139;53.144;6.244;2023-09-19T06:01:16;19.27;;;2.22;;
51732;SDS011;39139;53.144;6.244;2023-09-19T06:03:43;12.95;;;1.98;;
51732;SDS011;39139;53.144;6.244;2023-09-19T06:06:08;13.18;;;2.90;;
51732;SDS011;39139;53.144;6.244;2023-09-19T06:08:34;18.50;;;2.80;;
51732;SDS011;39139;53.144;6.244;2023-09-19T06:11:00;15.88;;;2.85;;
51732;SDS011;39139;53.144;6.244;2023-09-19T06:13:28;16.67;;;2.38;;
51732;SDS011;39139;53.144;6.244;2023-09-19T06:15:55;12.60;;;2.73;;
51732;SDS011;39139;53.144;6.244;2023-09-19T06:18:23;14.70;;;2.28;;
51732;SDS011;39139;53.144;6.244;2023-09-19T06:20:51;15.20;;;2.08;;
51732;SDS011;39139;53.144;6.244;2023-09-19T06:23:17;18.95;;;2.60;;
51732;SDS011;39139;53.144;6.244;2023-09-19T06:25:45;10.85;;;2.28;;
51732;SDS011;39139;53.144;6.244;2023-09-19T06:28:11;14.75;;;2.83;;
51732;SDS011;39139;53.144;6.244;2023-09-19T06:30:42;4.55;;;1.77;;
51732;SDS011;39139;53.144;6.244;2023-09-19T06:33:07;12.95;;;2.10;;
51732;SDS011;39139;53.144;6.244;2023-09-19T06:35:34;18.67;;;2.45;;
51732;SDS011;39139;53.144;6.244;2023-09-19T06:38:03;13.35;;;2.60;;
51732;SDS011;39139;53.144;6.244;2023-09-19T06:42:56;13.60;;;2.35;;
51732;SDS011;39139;53.144;6.244;2023-09-19T06:45:22;8.75;;;2.72;;
51732;SDS011;39139;53.144;6.244;2023-09-19T06:47:51;9.25;;;1.92;;
51732;SDS011;39139;53.144;6.244;2023-09-19T06:50:18;11.35;;;2.45;;
51732;SDS011;39139;53.144;6.244;2023-09-19T06:52:47;9.07;;;1.87;;
51732;SDS011;39139;53.144;6.244;2023-09-19T06:55:18;16.02;;;2.72;;
51732;SDS011;39139;53.144;6.244;2023-09-19T06:57:45;9.00;;;2.28;;
51732;SDS011;39139;53.144;6.244;2023-09-19T07:00:11;11.98;;;2.30;;
51732;SDS011;39139;53.144;6.244;2023-09-19T07:02:59;10.65;;;2.13;;
51732;SDS011;39139;53.144;6.244;2023-09-19T07:05:29;14.15;;;2.17;;
51732;SDS011;39139;53.144;6.244;2023-09-19T07:07:59;10.48;;;2.15;;
51732;SDS011;39139;53.144;6.244;2023-09-19T07:15:25;13.73;;;2.70;;
51732;SDS011;39139;53.144;6.244;2023-09-19T07:17:54;12.15;;;2.72;;
51732;SDS011;39139;53.144;6.244;2023-09-19T07:20:21;13.20;;;2.97;;
51732;SDS011;39139;53.144;6.244;2023-09-19T07:22:51;13.65;;;3.13;;
51732;SDS011;39139;53.144;6.244;2023-09-19T07:25:17;13.30;;;2.97;;
51732;SDS011;39139;53.144;6.244;2023-09-19T07:27:43;12.57;;;2.70;;
51732;SDS011;39139;53.144;6.244;2023-09-19T07:30:10;11.65;;;2.47;;
51732;SDS011;39139;53.144;6.244;2023-09-19T07:32:36;18.23;;;3.30;;
51732;SDS011;39139;53.144;6.244;2023-09-19T07:35:03;14.30;;;2.88;;
51732;SDS011;39139;53.144;6.244;2023-09-19T07:40:02;10.63;;;2.47;;
51732;SDS011;39139;53.144;6.244;2023-09-19T07:42:32;13.20;;;2.55;;
51732;SDS011;39139;53.144;6.244;2023-09-19T07:45:00;13.45;;;2.60;;
51732;SDS011;39139;53.144;6.244;2023-09-19T07:47:26;12.73;;;2.75;;
51732;SDS011;39139;53.144;6.244;2023-09-19T07:49:52;9.13;;;2.35;;
51732;SDS011;39139;53.144;6.244;2023-09-19T07:52:19;13.02;;;2.40;;
51732;SDS011;39139;53.144;6.244;2023-09-19T07:54:47;11.52;;;2.45;;
51732;SDS011;39139;53.144;6.244;2023-09-19T07:57:14;7.80;;;2.55;;
51732;SDS011;39139;53.144;6.244;2023-09-19T07:59:41;11.30;;;2.67;;
51732;SDS011;39139;53.144;6.244;2023-09-19T08:02:07;14.27;;;2.72;;
51732;SDS011;39139;53.144;6.244;2023-09-19T08:04:40;9.98;;;2.30;;
51732;SDS011;39139;53.144;6.244;2023-09-19T08:07:07;14.43;;;3.10;;
51732;SDS011;39139;53.144;6.244;2023-09-19T08:09:34;19.52;;;2.92;;
51732;SDS011;39139;53.144;6.244;2023-09-19T08:12:00;13.50;;;2.85;;
51732;SDS011;39139;53.144;6.244;2023-09-19T08:14:28;11.50;;;3.17;;
51732;SDS011;39139;53.144;6.244;2023-09-19T08:16:57;11.18;;;2.78;;
51732;SDS011;39139;53.144;6.244;2023-09-19T08:19:24;12.50;;;2.35;;
51732;SDS011;39139;53.144;6.244;2023-09-19T08:21:56;17.88;;;3.33;;
51732;SDS011;39139;53.144;6.244;2023-09-19T08:24:24;13.48;;;3.05;;
51732;SDS011;39139;53.144;6.244;2023-09-19T08:26:53;12.27;;;2.58;;
51732;SDS011;39139;53.144;6.244;2023-09-19T08:29:20;13.30;;;2.75;;
51732;SDS011;39139;53.144;6.244;2023-09-19T08:31:46;10.25;;;2.08;;
51732;SDS011;39139;53.144;6.244;2023-09-19T08:34:14;11.82;;;3.33;;
51732;SDS011;39139;53.144;6.244;2023-09-19T08:36:40;11.75;;;2.67;;
51732;SDS011;39139;53.144;6.244;2023-09-19T08:39:08;15.68;;;2.72;;
51732;SDS011;39139;53.144;6.244;2023-09-19T08:41:34;14.65;;;3.10;;
51732;SDS011;39139;53.144;6.244;2023-09-19T08:43:59;9.05;;;2.70;;
51732;SDS011;39139;53.144;6.244;2023-09-19T08:46:29;11.10;;;2.88;;
51732;SDS011;39139;53.144;6.244;2023-09-19T08:49:07;14.02;;;3.13;;
51732;SDS011;39139;53.144;6.244;2023-09-19T08:51:42;13.25;;;2.90;;
51732;SDS011;39139;53.144;6.244;2023-09-19T08:54:21;13.13;;;2.72;;
51732;SDS011;39139;53.144;6.244;2023-09-19T08:56:51;16.67;;;2.70;;
51732;SDS011;39139;53.144;6.244;2023-09-19T08:59:22;11.15;;;3.05;;
51732;SDS011;39139;53.144;6.244;2023-09-19T09:01:49;9.88;;;2.65;;
51732;SDS011;39139;53.144;6.244;2023-09-19T09:04:18;13.57;;;3.47;;
51732;SDS011;39139;53.144;6.244;2023-09-19T09:06:45;12.88;;;2.53;;
51732;SDS011;39139;53.144;6.244;2023-09-19T09:09:14;13.43;;;3.00;;
51732;SDS011;39139;53.144;6.244;2023-09-19T09:11:40;12.48;;;3.25;;
51732;SDS011;39139;53.144;6.244;2023-09-19T09:14:06;17.80;;;3.58;;
51732;SDS011;39139;53.144;6.244;2023-09-19T09:16:32;20.10;;;4.07;;
51732;SDS011;39139;53.144;6.244;2023-09-19T09:18:58;16.13;;;3.63;;
51732;SDS011;39139;53.144;6.244;2023-09-19T09:21:24;17.95;;;3.72;;
51732;SDS011;39139;53.144;6.244;2023-09-19T09:23:51;12.35;;;3.28;;
51732;SDS011;39139;53.144;6.244;2023-09-19T09:26:33;15.43;;;2.75;;
51732;SDS011;39139;53.144;6.244;2023-09-19T09:29:03;13.85;;;3.47;;
51732;SDS011;39139;53.144;6.244;2023-09-19T09:31:29;13.20;;;2.72;;
51732;SDS011;39139;53.144;6.244;2023-09-19T09:33:55;17.20;;;3.70;;
51732;SDS011;39139;53.144;6.244;2023-09-19T09:36:38;14.13;;;3.38;;
51732;SDS011;39139;53.144;6.244;2023-09-19T09:39:06;18.33;;;4.07;;
51732;SDS011;39139;53.144;6.244;2023-09-19T09:41:43;17.45;;;3.97;;
51732;SDS011;39139;53.144;6.244;2023-09-19T09:44:14;13.63;;;3.17;;
51732;SDS011;39139;53.144;6.244;2023-09-19T09:46:43;15.48;;;3.53;;
51732;SDS011;39139;53.144;6.244;2023-09-19T09:49:25;19.10;;;3.58;;
51732;SDS011;39139;53.144;6.244;2023-09-19T09:54:58;15.40;;;4.25;;
51732;SDS011;39139;53.144;6.244;2023-09-19T09:57:26;19.30;;;3.67;;
51732;SDS011;39139;53.144;6.244;2023-09-19T09:59:52;23.95;;;4.05;;
51732;SDS011;39139;53.144;6.244;2023-09-19T10:02:21;15.38;;;3.67;;
51732;SDS011;39139;53.144;6.244;2023-09-19T10:04:57;19.73;;;3.80;;
51732;SDS011;39139;53.144;6.244;2023-09-19T10:07:40;17.30;;;3.13;;
51732;SDS011;39139;53.144;6.244;2023-09-19T10:10:07;15.25;;;3.63;;
51732;SDS011;39139;53.144;6.244;2023-09-19T10:12:53;18.42;;;4.40;;
51732;SDS011;39139;53.144;6.244;2023-09-19T10:15:27;19.27;;;4.32;;
51732;SDS011;39139;53.144;6.244;2023-09-19T10:20:26;20.17;;;4.32;;
51732;SDS011;39139;53.144;6.244;2023-09-19T10:22:55;15.25;;;3.60;;
51732;SDS011;39139;53.144;6.244;2023-09-19T10:25:26;16.08;;;4.03;;
51732;SDS011;39139;53.144;6.244;2023-09-19T10:27:54;14.40;;;3.58;;
51732;SDS011;39139;53.144;6.244;2023-09-19T10:30:22;19.38;;;4.00;;
51732;SDS011;39139;53.144;6.244;2023-09-19T10:33:10;12.82;;;3.95;;
51732;SDS011;39139;53.144;6.244;2023-09-19T10:35:39;16.60;;;3.60;;
51732;SDS011;39139;53.144;6.244;2023-09-19T10:38:10;23.00;;;4.60;;
51732;SDS011;39139;53.144;6.244;2023-09-19T10:40:37;16.25;;;3.53;;
51732;SDS011;39139;53.144;6.244;2023-09-19T10:43:08;21.60;;;3.88;;
51732;SDS011;39139;53.144;6.244;2023-09-19T10:45:43;16.75;;;3.35;;
51732;SDS011;39139;53.144;6.244;2023-09-19T10:48:10;17.63;;;4.13;;
51732;SDS011;39139;53.144;6.244;2023-09-19T10:50:41;12.73;;;3.55;;
51732;SDS011;39139;53.144;6.244;2023-09-19T10:53:10;15.45;;;3.38;;
51732;SDS011;39139;53.144;6.244;2023-09-19T10:55:38;17.25;;;3.30;;
51732;SDS011;39139;53.144;6.244;2023-09-19T10:58:05;11.90;;;3.85;;
51732;SDS011;39139;53.144;6.244;2023-09-19T11:00:53;11.77;;;3.15;;
51732;SDS011;39139;53.144;6.244;2023-09-19T11:03:20;13.93;;;3.58;;
51732;SDS011;39139;53.144;6.244;2023-09-19T11:14:28;20.02;;;4.13;;
51732;SDS011;39139;53.144;6.244;2023-09-19T11:30:31;11.40;;;2.83;;
51732;SDS011;39139;53.144;6.244;2023-09-19T11:43:52;9.50;;;2.88;;
51732;SDS011;39139;53.144;6.244;2023-09-19T11:49:17;17.83;;;3.65;;
51732;SDS011;39139;53.144;6.244;2023-09-19T11:51:50;16.83;;;3.20;;
51732;SDS011;39139;53.144;6.244;2023-09-19T11:54:19;13.40;;;3.00;;
51732;SDS011;39139;53.144;6.244;2023-09-19T11:56:50;16.10;;;3.45;;
51732;SDS011;39139;53.144;6.244;2023-09-19T11:59:22;18.33;;;3.63;;
51732;SDS011;39139;53.144;6.244;2023-09-19T12:01:53;11.13;;;3.05;;
51732;SDS011;39139;53.144;6.244;2023-09-19T12:04:41;15.68;;;3.67;;
51732;SDS011;39139;53.144;6.244;2023-09-19T12:09:44;13.25;;;3.05;;
51732;SDS011;39139;53.144;6.244;2023-09-19T12:12:25;15.75;;;3.70;;
51732;SDS011;39139;53.144;6.244;2023-09-19T12:15:00;11.77;;;2.75;;
51732;SDS011;39139;53.144;6.244;2023-09-19T12:17:38;14.50;;;2.28;;
51732;SDS011;39139;53.144;6.244;2023-09-19T12:20:06;21.20;;;3.42;;
51732;SDS011;39139;53.144;6.244;2023-09-19T12:22:42;13.15;;;2.92;;
51732;SDS011;39139;53.144;6.244;2023-09-19T12:25:09;17.33;;;3.30;;
51732;SDS011;39139;53.144;6.244;2023-09-19T12:27:46;11.57;;;2.70;;
51732;SDS011;39139;53.144;6.244;2023-09-19T12:30:14;17.70;;;3.22;;
51732;SDS011;39139;53.144;6.244;2023-09-19T12:32:43;11.02;;;2.63;;
51732;SDS011;39139;53.144;6.244;2023-09-19T12:35:09;12.57;;;2.80;;
51732;SDS011;39139;53.144;6.244;2023-09-19T12:37:36;10.05;;;2.70;;
51732;SDS011;39139;53.144;6.244;2023-09-19T12:40:09;11.23;;;2.03;;
51732;SDS011;39139;53.144;6.244;2023-09-19T12:42:47;11.55;;;2.13;;
51732;SDS011;39139;53.144;6.244;2023-09-19T12:45:14;10.02;;;2.28;;
51732;SDS011;39139;53.144;6.244;2023-09-19T12:51:07;14.70;;;2.47;;
51732;SDS011;39139;53.144;6.244;2023-09-19T12:56:06;11.82;;;2.17;;
51732;SDS011;39139;53.144;6.244;2023-09-19T12:58:33;10.25;;;2.30;;
51732;SDS011;39139;53.144;6.244;2023-09-19T13:01:16;18.05;;;2.53;;
51732;SDS011;39139;53.144;6.244;2023-09-19T13:03:42;16.25;;;2.65;;
51732;SDS011;39139;53.144;6.244;2023-09-19T13:06:07;13.05;;;2.33;;
51732;SDS011;39139;53.144;6.244;2023-09-19T13:08:35;12.45;;;2.05;;
51732;SDS011;39139;53.144;6.244;2023-09-19T13:13:35;8.38;;;2.05;;
51732;SDS011;39139;53.144;6.244;2023-09-19T13:16:02;11.57;;;2.40;;
51732;SDS011;39139;53.144;6.244;2023-09-19T13:18:41;8.73;;;2.00;;
51732;SDS011;39139;53.144;6.244;2023-09-19T13:21:10;13.68;;;1.98;;
51732;SDS011;39139;53.144;6.244;2023-09-19T13:23:52;10.45;;;2.03;;
51732;SDS011;39139;53.144;6.244;2023-09-19T13:26:27;9.90;;;2.33;;
51732;SDS011;39139;53.144;6.244;2023-09-19T13:28:56;7.60;;;1.73;;
51732;SDS011;39139;53.144;6.244;2023-09-19T13:31:22;4.80;;;1.60;;
51732;SDS011;39139;53.144;6.244;2023-09-19T13:33:48;8.50;;;2.15;;
51732;SDS011;39139;53.144;6.244;2023-09-19T13:36:15;11.02;;;1.75;;
51732;SDS011;39139;53.144;6.244;2023-09-19T13:38:43;11.70;;;1.67;;
51732;SDS011;39139;53.144;6.244;2023-09-19T13:41:09;10.85;;;2.03;;
51732;SDS011;39139;53.144;6.244;2023-09-19T13:43:36;6.00;;;1.13;;
51732;SDS011;39139;53.144;6.244;2023-09-19T13:46:02;7.00;;;1.48;;
51732;SDS011;39139;53.144;6.244;2023-09-19T13:48:28;6.43;;;1.38;;
51732;SDS011;39139;53.144;6.244;2023-09-19T13:50:54;9.52;;;1.40;;
51732;SDS011;39139;53.144;6.244;2023-09-19T13:53:21;6.38;;;1.75;;
51732;SDS011;39139;53.144;6.244;2023-09-19T13:55:46;4.75;;;1.30;;
51732;SDS011;39139;53.144;6.244;2023-09-19T13:58:13;8.30;;;1.40;;
51732;SDS011;39139;53.144;6.244;2023-09-19T14:00:39;9.38;;;2.03;;
51732;SDS011;39139;53.144;6.244;2023-09-19T14:03:05;9.48;;;1.73;;
51732;SDS011;39139;53.144;6.244;2023-09-19T14:05:31;2.88;;;1.25;;
51732;SDS011;39139;53.144;6.244;2023-09-19T14:07:57;8.18;;;1.50;;
51732;SDS011;39139;53.144;6.244;2023-09-19T14:10:24;7.43;;;1.48;;
51732;SDS011;39139;53.144;6.244;2023-09-19T14:12:55;8.35;;;2.42;;
51732;SDS011;39139;53.144;6.244;2023-09-19T14:15:22;8.75;;;2.30;;
51732;SDS011;39139;53.144;6.244;2023-09-19T14:17:54;6.65;;;1.60;;
51732;SDS011;39139;53.144;6.244;2023-09-19T14:20:21;5.75;;;1.73;;
51732;SDS011;39139;53.144;6.244;2023-09-19T14:22:47;6.32;;;2.05;;
51732;SDS011;39139;53.144;6.244;2023-09-19T14:25:13;11.52;;;2.10;;
51732;SDS011;39139;53.144;6.244;2023-09-19T14:27:38;8.73;;;1.83;;
51732;SDS011;39139;53.144;6.244;2023-09-19T14:30:05;10.32;;;2.35;;
51732;SDS011;39139;53.144;6.244;2023-09-19T14:32:31;15.05;;;2.97;;
51732;SDS011;39139;53.144;6.244;2023-09-19T14:34:57;6.22;;;1.98;;
51732;SDS011;39139;53.144;6.244;2023-09-19T14:37:23;8.63;;;1.77;;
51732;SDS011;39139;53.144;6.244;2023-09-19T14:39:48;12.50;;;2.55;;
51732;SDS011;39139;53.144;6.244;2023-09-19T14:42:14;11.90;;;2.20;;
51732;SDS011;39139;53.144;6.244;2023-09-19T14:44:42;8.15;;;2.22;;
51732;SDS011;39139;53.144;6.244;2023-09-19T14:47:08;8.88;;;2.40;;
51732;SDS011;39139;53.144;6.244;2023-09-19T14:49:34;7.03;;;2.30;;
51732;SDS011;39139;53.144;6.244;2023-09-19T14:52:03;7.57;;;2.10;;
51732;SDS011;39139;53.144;6.244;2023-09-19T14:54:29;4.38;;;1.40;;
51732;SDS011;39139;53.144;6.244;2023-09-19T14:56:55;6.18;;;1.98;;
51732;SDS011;39139;53.144;6.244;2023-09-19T14:59:30;9.95;;;1.90;;
51732;SDS011;39139;53.144;6.244;2023-09-19T15:01:57;8.32;;;1.70;;
51732;SDS011;39139;53.144;6.244;2023-09-19T15:04:23;10.60;;;2.13;;
51732;SDS011;39139;53.144;6.244;2023-09-19T15:06:49;10.52;;;2.00;;
51732;SDS011;39139;53.144;6.244;2023-09-19T15:09:19;7.20;;;2.05;;
51732;SDS011;39139;53.144;6.244;2023-09-19T15:11:50;6.63;;;1.85;;
51732;SDS011;39139;53.144;6.244;2023-09-19T15:14:19;8.60;;;1.80;;
51732;SDS011;39139;53.144;6.244;2023-09-19T15:16:46;6.10;;;2.00;;
51732;SDS011;39139;53.144;6.244;2023-09-19T15:19:12;6.45;;;1.58;;
51732;SDS011;39139;53.144;6.244;2023-09-19T15:21:39;7.78;;;2.25;;
51732;SDS011;39139;53.144;6.244;2023-09-19T15:24:05;7.97;;;2.15;;
51732;SDS011;39139;53.144;6.244;2023-09-19T15:29:04;12.85;;;2.65;;
51732;SDS011;39139;53.144;6.244;2023-09-19T15:31:32;7.83;;;1.93;;
51732;SDS011;39139;53.144;6.244;2023-09-19T15:33:58;8.80;;;2.38;;
51732;SDS011;39139;53.144;6.244;2023-09-19T15:36:24;6.93;;;2.30;;
51732;SDS011;39139;53.144;6.244;2023-09-19T15:41:18;10.20;;;2.73;;
51732;SDS011;39139;53.144;6.244;2023-09-19T15:43:45;10.18;;;2.22;;
51732;SDS011;39139;53.144;6.244;2023-09-19T15:46:11;9.10;;;2.05;;
51732;SDS011;39139;53.144;6.244;2023-09-19T15:48:38;10.75;;;2.70;;
51732;SDS011;39139;53.144;6.244;2023-09-19T15:51:04;8.98;;;2.63;;
51732;SDS011;39139;53.144;6.244;2023-09-19T15:53:41;14.88;;;2.67;;
51732;SDS011;39139;53.144;6.244;2023-09-19T15:56:11;7.18;;;2.20;;
51732;SDS011;39139;53.144;6.244;2023-09-19T15:58:40;6.55;;;2.08;;
51732;SDS011;39139;53.144;6.244;2023-09-19T16:03:34;11.68;;;2.50;;
51732;SDS011;39139;53.144;6.244;2023-09-19T16:06:01;10.10;;;1.90;;
51732;SDS011;39139;53.144;6.244;2023-09-19T16:08:32;8.77;;;2.28;;
51732;SDS011;39139;53.144;6.244;2023-09-19T16:11:00;6.43;;;1.65;;
51732;SDS011;39139;53.144;6.244;2023-09-19T16:13:25;6.63;;;2.15;;
51732;SDS011;39139;53.144;6.244;2023-09-19T16:15:53;11.40;;;3.22;;